createdAt,value
2022-11-16T00:01:05.602Z,7.01
2022-11-16T00:04:07.294Z,7.02
2022-11-16T00:07:09.542Z,7.15
2022-11-16T00:10:12.355Z,7.03
2022-11-16T00:13:13.936Z,7.07
2022-11-16T00:16:17.813Z,7.03
2022-11-16T00:19:19.486Z,7.16
2022-11-16T00:22:21.203Z,7.22
2022-11-16T00:25:22.804Z,7.27
2022-11-16T00:28:24.434Z,7.20
2022-11-16T00:31:26.016Z,7.10
2022-11-16T00:34:27.633Z,6.99
2022-11-16T00:37:29.251Z,6.96
2022-11-16T00:40:30.808Z,6.94
2022-11-16T00:43:34.135Z,7.04
2022-11-16T00:46:35.849Z,6.89
2022-11-16T00:49:38.482Z,6.78
2022-11-16T00:52:40.209Z,6.92
2022-11-16T00:55:44.187Z,7.01
2022-11-16T00:58:45.798Z,7.10
2022-11-16T01:01:47.456Z,6.99
2022-11-16T01:04:49.100Z,7.10
2022-11-16T01:07:51.530Z,7.03
2022-11-16T01:10:53.106Z,7.10
2022-11-16T01:13:55.467Z,7.02
2022-11-16T01:16:57.088Z,6.83
2022-11-16T01:19:58.780Z,7.02
2022-11-16T01:23:00.381Z,7.00
2022-11-16T01:26:02.013Z,7.05
2022-11-16T01:29:04.057Z,6.99
2022-11-16T01:32:06.100Z,7.01
2022-11-16T01:35:08.850Z,7.09
2022-11-16T01:38:10.440Z,7.02
2022-11-16T01:41:14.840Z,7.02
2022-11-16T01:44:31.609Z,6.93
2022-11-16T01:47:33.591Z,7.05
2022-11-16T01:50:35.877Z,7.10
2022-11-16T01:53:37.843Z,7.09
2022-11-16T01:56:42.120Z,7.15
2022-11-16T01:59:45.889Z,7.02
2022-11-16T02:02:47.506Z,7.14
2022-11-16T02:06:07.580Z,7.15
2022-11-16T02:09:49.660Z,7.14
2022-11-16T02:13:07.539Z,7.11
2022-11-16T02:16:24.802Z,7.17
2022-11-16T02:19:55.516Z,7.27
2022-11-16T02:23:12.375Z,7.13
2022-11-16T02:26:29.339Z,7.10
2022-11-16T02:29:45.669Z,7.09
2022-11-16T02:32:56.627Z,6.96
2022-11-16T02:36:01.225Z,7.07
2022-11-16T02:39:12.464Z,7.15
2022-11-16T02:42:20.473Z,7.13
2022-11-16T02:45:25.819Z,7.19
2022-11-16T02:48:34.735Z,7.03
2022-11-16T02:51:38.362Z,6.94
2022-11-16T02:54:40.022Z,7.01
2022-11-16T02:57:51.353Z,7.02
2022-11-16T03:01:05.859Z,7.05
2022-11-16T03:04:17.195Z,7.03
2022-11-16T03:07:25.704Z,7.20
2022-11-16T03:10:46.336Z,6.98
2022-11-16T03:13:49.889Z,7.04
2022-11-16T03:16:56.543Z,6.95
2022-11-16T03:20:04.714Z,7.09
2022-11-16T03:23:10.345Z,7.14
2022-11-16T03:26:16.503Z,7.18
2022-11-16T03:29:30.457Z,7.20
2022-11-16T03:32:39.226Z,7.21
2022-11-16T03:35:51.982Z,7.24
2022-11-16T03:38:54.924Z,7.17
2022-11-16T03:42:00.229Z,7.15
2022-11-16T03:45:03.375Z,7.14
2022-11-16T03:48:06.898Z,7.13
2022-11-16T03:51:10.468Z,7.18
2022-11-16T03:54:12.034Z,7.23
2022-11-16T03:57:18.166Z,7.15
2022-11-16T04:00:19.889Z,7.26
2022-11-16T04:03:21.921Z,7.13
2022-11-16T04:06:42.171Z,7.12
2022-11-16T04:10:02.449Z,7.18
2022-11-16T04:13:23.015Z,7.29
2022-11-16T04:16:43.223Z,7.23
2022-11-16T04:20:03.267Z,7.09
2022-11-16T04:23:25.600Z,7.13
2022-11-16T04:26:46.568Z,7.28
2022-11-16T04:29:48.897Z,7.23
2022-11-16T04:33:09.267Z,7.26
2022-11-16T04:36:29.347Z,7.25
2022-11-16T04:39:31.044Z,7.22
2022-11-16T04:42:32.711Z,7.20
2022-11-16T04:45:53.159Z,7.19
2022-11-16T04:48:54.795Z,7.27
2022-11-16T04:51:56.552Z,7.20
2022-11-16T04:54:58.441Z,7.24
2022-11-16T04:58:01.017Z,7.28
2022-11-16T05:01:02.810Z,7.21
2022-11-16T05:04:04.661Z,7.30
2022-11-16T05:07:13.592Z,7.30
2022-11-16T05:10:15.639Z,7.24
2022-11-16T05:13:17.337Z,7.28
2022-11-16T05:16:19.018Z,7.28
2022-11-16T05:19:38.994Z,7.23
2022-11-16T05:22:40.696Z,7.33
2022-11-16T05:25:42.347Z,7.25
2022-11-16T05:28:44.044Z,7.33
2022-11-16T05:31:45.709Z,7.42
2022-11-16T05:34:48.005Z,7.35
2022-11-16T05:37:49.604Z,7.38
2022-11-16T05:40:51.657Z,7.31
2022-11-16T05:43:55.471Z,7.19
2022-11-16T05:46:57.143Z,7.33
2022-11-16T05:49:58.769Z,7.36
2022-11-16T05:53:00.486Z,7.17
2022-11-16T05:56:02.191Z,7.23
2022-11-16T05:59:03.935Z,7.35
2022-11-16T06:02:05.607Z,7.39
2022-11-16T06:05:07.564Z,7.34
2022-11-16T06:08:09.219Z,7.39
2022-11-16T06:11:11.823Z,7.48
2022-11-16T06:14:13.478Z,7.25
2022-11-16T06:17:15.360Z,7.41
2022-11-16T06:20:17.338Z,7.58
2022-11-16T06:23:19.189Z,7.55
2022-11-16T06:26:20.857Z,7.55
2022-11-16T06:29:22.466Z,7.56
2022-11-16T06:32:24.115Z,7.42
2022-11-16T06:35:25.755Z,7.43
2022-11-16T06:38:27.833Z,7.41
2022-11-16T06:41:29.502Z,7.45
2022-11-16T06:44:31.144Z,7.62
2022-11-16T06:47:32.772Z,7.58
2022-11-16T06:50:34.744Z,7.57
2022-11-16T06:53:36.493Z,7.58
2022-11-16T06:56:38.102Z,7.54
2022-11-16T06:59:39.707Z,7.62
2022-11-16T07:02:41.313Z,7.64
2022-11-16T07:05:42.980Z,7.49
2022-11-16T07:08:44.645Z,7.47
2022-11-16T07:11:46.253Z,7.47
2022-11-16T07:14:49.531Z,7.57
2022-11-16T07:17:51.169Z,7.71
2022-11-16T07:20:52.791Z,7.57
2022-11-16T07:23:54.963Z,7.54
2022-11-16T07:26:56.558Z,7.61
2022-11-16T07:29:58.190Z,7.65
2022-11-16T07:32:59.835Z,7.80
2022-11-16T07:36:12.535Z,7.76
2022-11-16T07:39:14.152Z,7.91
2022-11-16T07:42:15.840Z,7.75
2022-11-16T07:45:17.504Z,7.74
2022-11-16T07:48:19.084Z,7.73
2022-11-16T07:51:20.667Z,7.68
2022-11-16T07:54:22.226Z,7.97
2022-11-16T07:57:23.772Z,7.93
2022-11-16T08:00:25.404Z,8.07
2022-11-16T08:03:26.976Z,8.10
2022-11-16T08:06:30.703Z,8.01
2022-11-16T08:09:32.288Z,7.97
2022-11-16T08:12:33.975Z,8.08
2022-11-16T08:15:35.562Z,8.25
2022-11-16T08:18:38.201Z,8.12
2022-11-16T08:21:39.794Z,8.13
2022-11-16T08:24:41.566Z,8.27
2022-11-16T08:27:43.577Z,8.25
2022-11-16T08:30:48.420Z,8.12
2022-11-16T08:33:54.168Z,8.10
2022-11-16T08:36:55.783Z,8.35
2022-11-16T08:39:57.519Z,8.38
2022-11-16T08:42:59.066Z,8.22
2022-11-16T08:46:00.809Z,8.29
2022-11-16T08:49:02.401Z,8.39
2022-11-16T08:52:04.302Z,8.49
2022-11-16T08:55:06.754Z,8.53
2022-11-16T08:58:09.226Z,8.45
2022-11-16T09:01:14.029Z,8.63
2022-11-16T09:04:16.283Z,8.63
2022-11-16T09:07:17.938Z,8.67
2022-11-16T09:10:23.035Z,8.52
2022-11-16T09:13:25.298Z,8.64
2022-11-16T09:16:27.978Z,8.59
2022-11-16T09:19:29.576Z,8.57
2022-11-16T09:22:31.215Z,8.49
2022-11-16T09:25:32.799Z,8.61
2022-11-16T09:28:34.813Z,8.69
2022-11-16T09:31:37.470Z,8.70
2022-11-16T09:34:39.069Z,8.76
2022-11-16T09:37:40.633Z,8.65
2022-11-16T09:40:46.264Z,8.69
2022-11-16T09:44:05.653Z,8.70
2022-11-16T09:47:17.646Z,8.92
2022-11-16T09:50:33.676Z,8.96
2022-11-16T09:53:46.160Z,9.03
2022-11-16T09:56:51.691Z,8.87
2022-11-16T10:00:02.249Z,8.93
2022-11-16T10:03:13.237Z,8.98
2022-11-16T10:06:22.213Z,8.81
2022-11-16T10:09:25.815Z,9.10
2022-11-16T10:12:51.800Z,9.08
2022-11-16T10:16:04.707Z,9.19
2022-11-16T10:19:22.579Z,9.28
2022-11-16T10:22:24.027Z,9.40
2022-11-16T10:26:01.798Z,9.17
2022-11-16T10:29:43.305Z,9.27
2022-11-16T10:32:55.936Z,9.31
2022-11-16T10:35:58.006Z,9.46
2022-11-16T10:39:00.813Z,9.15
2022-11-16T10:42:07.825Z,9.27
2022-11-16T10:45:22.521Z,9.18
2022-11-16T10:48:47.268Z,9.24
2022-11-16T10:51:48.831Z,9.41
2022-11-16T10:54:50.601Z,9.56
2022-11-16T10:57:56.759Z,9.66
2022-11-16T11:00:59.236Z,9.90
2022-11-16T11:04:17.614Z,9.86
2022-11-16T11:07:29.433Z,9.89
2022-11-16T11:10:37.286Z,9.88
2022-11-16T11:13:38.855Z,9.84
2022-11-16T11:16:41.643Z,9.96
2022-11-16T11:19:43.211Z,9.74
2022-11-16T11:23:00.406Z,9.88
2022-11-16T11:26:01.979Z,9.71
2022-11-16T11:29:29.931Z,9.64
2022-11-16T11:32:40.252Z,10.15
2022-11-16T11:35:42.330Z,10.31
2022-11-16T11:39:05.879Z,10.22
2022-11-16T11:42:13.476Z,10.18
2022-11-16T11:45:15.560Z,10.35
2022-11-16T11:49:00.061Z,10.42
2022-11-16T11:52:27.698Z,10.32
2022-11-16T11:55:29.743Z,10.51
2022-11-16T11:58:34.258Z,10.53
2022-11-16T12:02:29.163Z,10.36
2022-11-16T12:06:00.839Z,10.06
2022-11-16T12:09:10.618Z,10.01
2022-11-16T12:12:32.794Z,10.21
2022-11-16T12:16:05.338Z,9.98
2022-11-16T12:19:39.081Z,9.83
2022-11-16T12:23:08.469Z,9.89
2022-11-16T12:26:22.156Z,9.80
2022-11-16T12:29:40.848Z,9.89
2022-11-16T12:33:04.429Z,9.85
2022-11-16T12:36:34.295Z,9.93
2022-11-16T12:39:44.510Z,9.88
2022-11-16T12:42:51.786Z,9.80
2022-11-16T12:46:12.661Z,9.84
2022-11-16T12:49:35.714Z,9.97
2022-11-16T12:52:46.019Z,10.05
2022-11-16T12:55:56.508Z,9.91
2022-11-16T12:59:07.341Z,9.94
2022-11-16T13:02:41.312Z,9.64
2022-11-16T13:05:48.800Z,9.62
2022-11-16T13:08:55.739Z,9.41
2022-11-16T13:12:03.170Z,9.39
2022-11-16T13:15:05.902Z,9.47
2022-11-16T13:18:14.337Z,9.26
2022-11-16T13:21:21.698Z,9.43
2022-11-16T13:24:46.189Z,9.42
2022-11-16T13:27:53.780Z,9.14
2022-11-16T13:31:38.395Z,9.27
2022-11-16T13:34:41.077Z,9.26
2022-11-16T13:37:44.510Z,9.18
2022-11-16T13:40:46.152Z,9.36
2022-11-16T13:43:51.024Z,9.04
2022-11-16T13:46:59.639Z,9.15
2022-11-16T13:50:07.001Z,9.18
2022-11-16T13:56:49.882Z,9.14
2022-11-16T14:00:10.189Z,9.15
2022-11-16T14:03:11.857Z,9.16
2022-11-16T14:06:13.349Z,9.19
2022-11-16T14:09:44.067Z,9.24
2022-11-16T14:12:53.544Z,9.08
2022-11-16T14:16:20.076Z,9.02
2022-11-16T14:19:44.918Z,9.12
2022-11-16T14:23:08.565Z,9.07
2022-11-16T14:26:27.976Z,8.98
2022-11-16T14:29:52.423Z,8.88
2022-11-16T14:32:55.723Z,8.98
2022-11-16T14:35:58.069Z,8.93
2022-11-16T14:39:15.296Z,8.97
2022-11-16T14:42:21.541Z,8.95
2022-11-16T14:45:26.165Z,9.03
2022-11-16T14:48:28.153Z,8.97
2022-11-16T14:51:44.937Z,8.96
2022-11-16T14:54:57.487Z,8.75
2022-11-16T14:58:14.130Z,8.84
2022-11-16T15:01:18.238Z,8.92
2022-11-16T15:04:21.965Z,8.81
2022-11-16T15:07:24.756Z,8.80
2022-11-16T15:10:28.430Z,8.76
2022-11-16T15:13:30.264Z,8.66
2022-11-16T15:16:31.840Z,8.79
2022-11-16T15:19:33.690Z,8.70
2022-11-16T15:22:41.250Z,8.44
2022-11-16T15:25:44.672Z,8.62
2022-11-16T15:28:50.002Z,8.59
2022-11-16T15:31:52.013Z,8.48
2022-11-16T15:34:54.485Z,8.51
2022-11-16T15:38:17.883Z,8.60
2022-11-16T15:41:19.834Z,8.58
2022-11-16T15:44:23.569Z,8.30
2022-11-16T15:47:25.985Z,8.50
2022-11-16T15:50:28.159Z,8.44
2022-11-16T15:53:38.686Z,8.54
2022-11-16T15:56:41.297Z,8.39
2022-11-16T15:59:55.242Z,8.27
2022-11-16T16:03:05.442Z,8.40
2022-11-16T16:06:08.651Z,8.33
2022-11-16T16:09:21.346Z,8.39
2022-11-16T16:12:27.954Z,8.34
2022-11-16T16:15:36.820Z,8.28
2022-11-16T16:18:45.526Z,8.24
2022-11-16T16:21:47.264Z,8.32
2022-11-16T16:24:48.965Z,8.30
2022-11-16T16:27:50.682Z,8.22
2022-11-16T16:30:52.521Z,8.18
2022-11-16T16:33:55.637Z,8.31
2022-11-16T16:36:57.296Z,8.29
2022-11-16T16:39:59.771Z,8.23
2022-11-16T16:43:01.371Z,8.20
2022-11-16T16:46:04.111Z,8.23
2022-11-16T16:49:06.074Z,8.14
2022-11-16T16:52:08.408Z,8.23
2022-11-16T16:55:10.361Z,8.29
2022-11-16T16:58:13.754Z,8.18
2022-11-16T17:01:15.415Z,8.12
2022-11-16T17:04:17.362Z,8.23
2022-11-16T17:07:19.327Z,8.14
2022-11-16T17:10:20.993Z,8.08
2022-11-16T17:13:22.554Z,8.06
2022-11-16T17:16:24.244Z,7.99
2022-11-16T17:19:27.263Z,8.07
2022-11-16T17:22:29.216Z,8.04
2022-11-16T17:25:33.433Z,7.99
2022-11-16T17:28:35.481Z,8.01
2022-11-16T17:31:37.509Z,8.01
2022-11-16T17:34:41.799Z,8.07
2022-11-16T17:37:43.872Z,7.98
2022-11-16T17:40:45.925Z,7.95
2022-11-16T17:43:47.766Z,8.05
2022-11-16T17:47:08.540Z,7.92
2022-11-16T17:50:10.488Z,8.00
2022-11-16T17:53:12.290Z,7.84
2022-11-16T17:56:19.516Z,7.99
2022-11-16T17:59:23.837Z,8.03
2022-11-16T18:02:29.632Z,7.90
2022-11-16T18:05:31.498Z,8.11
2022-11-16T18:08:34.651Z,8.07
2022-11-16T18:11:36.772Z,8.03
2022-11-16T18:14:38.725Z,8.08
2022-11-16T18:17:40.439Z,8.10
2022-11-16T18:20:42.354Z,8.07
2022-11-16T18:23:44.850Z,8.07
2022-11-16T18:26:46.895Z,8.06
2022-11-16T18:29:48.566Z,8.08
2022-11-16T18:32:50.663Z,8.05
2022-11-16T18:35:52.369Z,8.10
2022-11-16T18:38:54.475Z,8.07
2022-11-16T18:41:57.361Z,8.19
2022-11-16T18:44:59.455Z,8.15
2022-11-16T18:48:01.471Z,8.14
2022-11-16T18:51:05.481Z,8.05
2022-11-16T18:54:07.638Z,8.08
2022-11-16T18:57:09.825Z,7.99
2022-11-16T19:00:15.560Z,8.05
2022-11-16T19:03:17.673Z,8.00
2022-11-16T19:06:20.044Z,8.00
2022-11-16T19:09:22.080Z,8.08
2022-11-16T19:12:24.291Z,8.14
2022-11-16T19:15:26.845Z,8.08
2022-11-16T19:18:28.981Z,8.01
2022-11-16T19:21:32.059Z,8.04
2022-11-16T19:24:34.204Z,7.95
2022-11-16T19:27:36.209Z,7.86
2022-11-16T19:30:38.233Z,7.79
2022-11-16T19:33:40.868Z,7.68
2022-11-16T19:36:42.551Z,7.76
2022-11-16T19:39:44.132Z,7.75
2022-11-16T19:42:46.806Z,7.80
2022-11-16T19:45:48.833Z,7.76
2022-11-16T19:48:51.784Z,7.80
2022-11-16T19:51:53.798Z,7.79
2022-11-16T19:54:56.470Z,7.80
2022-11-16T19:57:58.515Z,7.81
2022-11-16T20:01:06.123Z,7.77
2022-11-16T20:04:09.507Z,7.67
2022-11-16T20:07:13.313Z,7.70
2022-11-16T20:10:15.648Z,7.71
2022-11-16T20:13:18.450Z,7.69
2022-11-16T20:16:23.203Z,7.74
2022-11-16T20:19:25.226Z,7.58
2022-11-16T20:22:27.372Z,7.61
2022-11-16T20:25:29.981Z,7.59
2022-11-16T20:28:40.559Z,7.62
2022-11-16T20:31:44.722Z,7.62
2022-11-16T20:34:46.780Z,7.68
2022-11-16T20:37:48.689Z,7.69
2022-11-16T20:40:51.405Z,7.72
2022-11-16T20:43:55.744Z,7.72
2022-11-16T20:46:57.781Z,7.66
2022-11-16T20:49:59.653Z,7.70
2022-11-16T20:53:05.138Z,7.77
2022-11-16T20:56:10.625Z,7.67
2022-11-16T20:59:12.285Z,7.66
2022-11-16T21:02:14.205Z,7.65
2022-11-16T21:05:16.002Z,7.56
2022-11-16T21:08:18.624Z,7.66
2022-11-16T21:11:24.945Z,7.65
2022-11-16T21:14:26.788Z,7.71
2022-11-16T21:17:28.629Z,7.86
2022-11-16T21:20:30.221Z,7.77
2022-11-16T21:23:35.034Z,7.79
2022-11-16T21:26:37.485Z,7.81
2022-11-16T21:29:39.070Z,7.79
2022-11-16T21:32:40.676Z,7.85
2022-11-16T21:35:42.326Z,7.79
2022-11-16T21:38:44.701Z,7.74
2022-11-16T21:41:46.275Z,7.58
2022-11-16T21:44:47.866Z,7.60
2022-11-16T21:47:50.448Z,7.65
2022-11-16T21:51:10.330Z,7.78
2022-11-16T21:54:11.960Z,7.70
2022-11-16T21:57:14.977Z,7.73
2022-11-16T22:00:16.970Z,7.80
2022-11-16T22:03:18.570Z,7.79
2022-11-16T22:06:38.785Z,7.71
2022-11-16T22:09:40.351Z,7.66
2022-11-16T22:12:41.951Z,7.69
2022-11-16T22:15:43.525Z,7.66
2022-11-16T22:18:45.232Z,7.62
2022-11-16T22:21:46.858Z,7.57
2022-11-16T22:24:48.602Z,7.58
2022-11-16T22:28:18.978Z,7.66
2022-11-16T22:31:15.579Z,7.79
2022-11-16T22:34:17.129Z,7.79
2022-11-16T22:37:18.699Z,7.74
2022-11-16T22:40:20.252Z,7.71
2022-11-16T22:43:24.165Z,7.65
2022-11-16T22:46:25.747Z,7.77
2022-11-16T22:49:27.358Z,7.79
2022-11-16T22:52:29.252Z,7.73
2022-11-16T22:55:34.120Z,7.80
2022-11-16T22:58:36.918Z,7.71
2022-11-16T23:01:38.558Z,7.79
2022-11-16T23:04:40.199Z,7.79
2022-11-16T23:07:43.932Z,7.81
2022-11-16T23:11:04.133Z,7.88
2022-11-16T23:14:26.331Z,7.81
2022-11-16T23:17:27.932Z,7.81
2022-11-16T23:20:48.202Z,7.79
2022-11-16T23:24:25.356Z,7.81
2022-11-16T23:27:35.246Z,7.77
2022-11-16T23:30:36.982Z,7.76
2022-11-16T23:33:44.682Z,7.80
2022-11-16T23:36:46.342Z,7.78
2022-11-16T23:39:48.090Z,7.69
2022-11-16T23:43:08.707Z,7.77
2022-11-16T23:46:10.359Z,7.86
2022-11-16T23:49:11.945Z,7.78
2022-11-16T23:52:13.939Z,7.77
2022-11-16T23:55:15.571Z,7.76
2022-11-16T23:58:17.162Z,7.78
